Terminal Aerodrome Forecast
Issued by NWS

Home | Current Version | Previous Version | Text Only | Print | Product List | Glossary On
Versions: 1 2 3 4 5 6 7 8 9 10 11 12 13 14 15 16 17 18 19 20 21 22 23 24 25 26
000
FTUS41 KOKX 011200 AAA
TAFGON
TAF AMD
KGON 011228Z 0112/0212 17003KT 6SM BR SCT015 BKN250
      TEMPO 0112/0113 5SM BR BKN015
     FM011400 18006KT P6SM SCT250
     FM011700 18009KT P6SM FEW060 SCT150
     FM020000 18005KT P6SM FEW060 BKN150
     FM020500 VRB05KT P6SM VCSH SCT050 BKN100
     FM020900 05007KT 6SM -SHRA BKN050=

USA.gov is the U.S. government's official web portal to all federal, state and local government web resources and services.